Bever, Belgium
Current Conditions -  °F | °C
As of 11:50 AM on Wednesday 22 Oct 2014 (Local Time) from EBBR Reporting Station
Scattered Clouds Scattered Clouds  
Wind Chill: 50°   Ceiling: Unl
Heat Index: 50°   Visibility: 6mi
Dew Point: 45°   Wind: 16mph
Humidity: 82%   Direction: 300°WNW
Pressure: 30.15"   Gusts: 30mph
Location:  50.92°N, 4.32°E
Report Text: EBBR 220950Z 30014G26KT 270V330 9999 SCT032 10/07 Q1021 NOSIG
Loading
Personal Weather Stations






























Interactive Weather Map
Tropical Storm Tracking
New forecast layout! Learn more

10-Day Weather Forecast

Advertisements
Track Severe Weather on mobile